Tiempo atmosférico en la estación meteorológica de Gijón, Campus, Asturias (26 m.)



Fecha
DESCASC
Temp. máxima en grados centígrados (hora)
DESCASC
Temp. mínima en grados centígrados (hora)
DESCASC
Temp. media en grados centígrados
DESCASC
Racha de viento máxima en m/sg (hora)
DESCASC
Velocidad máxima media en intervalos de 10 minutos(hora)
DESCASC
Precipitaciones diarias en mm
DESCASC
Precipitaciones de 00:00 a 06:00 en mm
DESCASC
Precipitaciones de 06:00 a 12:00 en mm
DESCASC
Precipitaciones de 12:00 a 18:00 en mm
DESCASC
Precipitaciones de 18:00 a 24:00 en mm
DESCASC
02-04-2020 -- (--) -- (--) -- -- (--) -- (--) -- 0.6 -- -- 0
01-04-2020 13.8 (18:00) 5.2 (08:00) 9.5 5.83 (21:10) 3.89 (16:00) -- 0 0 -- 0
31-03-2020 10 (14:20) 1.9 (00:00) 5.9 13.06 (18:10) 7.22 (18:10) 5 5 0 0 0
30-03-2020 10.1 (13:50) 3.8 (00:00) 7 12.22 (10:20) 6.39 (16:10) -- -- 0.6 0.4 9.6
29-03-2020 15.5 (16:00) 4.7 (00:00) 10.1 12.22 (18:10) 5.56 (18:10) 0.4 0 0 0 0.4
28-03-2020 15.8 (13:30) 2.2 (00:00) 9 8.61 (14:50) 4.44 (15:20) 0 0 0 0 0
27-03-2020 14 (13:40) 1.4 (00:00) 7.7 11.67 (14:50) 6.11 (18:50) 0 0 0 0 0
26-03-2020 13.9 (13:50) 3 (00:00) 8.4 7.5 (19:50) 4.72 (15:40) -- -- 0 0 0
25-03-2020 15.6 (12:30) 4.2 (00:00) 9.9 6.39 (14:50) 4.17 (12:40) -- 0 0 0 --
24-03-2020 -- (--) -- (--) -- -- (--) -- (--) -- 0 0 -- 0
23-03-2020 15.1 (13:30) 11.3 (00:00) 13.2 8.89 (16:00) 5 (16:00) 0.2 0 0.2 0 0
22-03-2020 -- (--) -- (--) -- -- (--) -- (--) -- -- 0 0 0
21-03-2020 13.6 (14:30) 9.7 (00:00) 11.7 4.72 (15:10) 2.5 (14:40) -- -- 0 0 0
20-03-2020 14.7 (17:10) 10.5 (00:00) 12.6 5.28 (14:10) 3.33 (12:50) -- 0 0 0 --
19-03-2020 13 (15:00) 10.4 (00:00) 11.7 5.28 (14:20) 3.89 (15:20) -- 0 -- 0 0
18-03-2020 15.2 (12:50) 9.7 (00:00) 12.4 5.83 (14:30) 3.61 (13:50) -- 0 0 -- 0
17-03-2020 13.3 (13:10) 6.2 (00:00) 9.8 -- (--) -- (--) -- 0 0 -- 0
16-03-2020 13.7 (14:20) 5.5 (00:00) 9.6 10.83 (14:30) 6.11 (14:30) 8.2 2.8 4.2 1.2 0
15-03-2020 17.1 (13:50) 3.1 (00:00) 10.1 12.22 (14:00) 6.94 (14:40) -- -- 0 1 3.4
14-03-2020 15.8 (13:50) 6 (00:00) 10.9 6.94 (15:50) 4.72 (15:50) 0 0 0 0 0
13-03-2020 13.6 (15:30) 8.9 (06:50) 11.3 7.78 (13:20) 3.89 (13:20) 1 0.8 0.2 0 0
12-03-2020 13.9 (13:40) 9.5 (00:00) 11.7 7.78 (16:50) 4.72 (17:10) 4.6 0 0 0.2 4.4
11-03-2020 -- (--) -- (--) -- -- (--) -- (--) -- 0 0 -- 0
10-03-2020 17.8 (17:10) 4.8 (00:00) 11.3 6.11 (17:50) 3.89 (17:50) 0 0 0 0 0
09-03-2020 15.1 (13:20) 7.8 (00:00) 11.5 8.61 (04:10) 4.72 (14:10) 0.2 0.2 0 0 0
08-03-2020 19.1 (13:30) 3.1 (00:00) 11.1 12.5 (18:00) 6.67 (14:50) -- -- 0 0 0.4
07-03-2020 15.1 (12:50) 4.3 (00:00) 9.7 7.22 (15:30) 4.72 (15:40) 0.4 0.4 0 0 0
06-03-2020 12.3 (13:10) 7.5 (00:00) 9.9 -- (--) -- (--) -- -- -- 1.4 0.2
05-03-2020 14.8 (10:40) 9.4 (00:00) 12.1 -- (--) -- (--) -- 3.4 -- 2.8 --

Gráficas

Temp. máximas Temp. mínimas Temp. medias Precipitaciones Rachas de viento máximas Velocidades máximas media en intervalos de 10 minutos

Datos horarios

Fecha y hora oficial Temperatura (ºC) Velocidad del viento (km/h) Dirección del viento Racha (km/h) Dirección de racha Precipitación (mm) Presión (hPa) Tendencia (hPa) Humedad (%)
2020-04-03 23:00:00 9.3 3 Sudeste 15 Sudeste 0 1012.4 0.1 83
2020-04-03 22:00:00 10.4 9 Este 24 Este 0 1012.2 -0.1 78
2020-04-03 21:00:00 11 14 Este 27 Este 0 1012 -0.5 74
2020-04-03 20:00:00 12.7 16 Este 30 Este 0 1012.3 -0.6 64
2020-04-03 19:00:00 13.8 16 Este 31 Este 0 1012.3 -1.1 59
2020-04-03 18:00:00 14.4 16 Este 31 Este 0 1012.5 -1.4 56
2020-04-03 17:00:00 14.3 18 Este 33 Este 0 1012.9 -- 54
2020-04-03 16:00:00 14.2 18 Este 33 Este 0 1013.4 -2.2 56
2020-04-03 15:00:00 14.9 13 Este -- -- -- 1013.9 -2.1 57
2020-04-03 14:00:00 -- -- -- -- -- -- -- -- --
2020-04-03 13:00:00 14.1 14 Este 27 Este 0 1015.6 -- 58
2020-04-03 12:00:00 12.9 13 Este 24 Este 0 1016 0 60
2020-04-03 11:00:00 12.4 10 Este -- -- -- 1016 0.4 65
2020-04-03 10:00:00 -- -- -- -- -- -- -- -- --
2020-04-03 09:00:00 4.6 5 Sudeste 7 Sudeste 0 1016 -- 98
2020-04-03 08:00:00 4.5 4 Este 7 Este 0 1015.6 -0.4 96
2020-04-03 07:00:00 5.6 4 Sudeste -- -- -- 1015.5 -0.8 94
2020-04-03 06:00:00 -- -- -- -- -- -- -- -- --
2020-04-03 05:00:00 5.7 4 Sur 6 Sudeste 0 1016 -1.1 91
2020-04-03 04:00:00 7.6 4 Sudeste -- -- -- 1016.3 -1 86
2020-04-03 03:00:00 -- -- -- -- -- -- -- -- --
2020-04-03 02:00:00 9.7 3 Este 10 Nordeste 0 1017.1 -0.2 72
2020-04-03 01:00:00 9.8 5 Nordeste 12 Nordeste 0 1017.3 0.2 72
2020-04-03 00:00:00 10.2 6 Nordeste 15 Nordeste 0 1017.5 1 75
2020-04-02 23:00:00 10.4 8 Nordeste 15 Norte 0 1017.3 1.1 75
2020-04-02 22:00:00 10.5 10 Nordeste 16 Nordeste 0 1017.1 1.4 77
2020-04-02 21:00:00 10.9 7 Nordeste 17 Norte 0 1016.5 1.2 77
2020-04-02 20:00:00 11.5 10 Norte 22 Nordeste 0 1016.2 1.2 76
2020-04-02 19:00:00 12.6 12 Norte 22 Norte 0 1015.7 0.6 67
2020-04-02 18:00:00 14 14 Nordeste 23 Nordeste 0 1015.3 0.2 60
2020-04-02 17:00:00 13.4 10 Nordeste 22 Norte 0 1015 0 59
2020-04-02 16:00:00 14.3 17 Norte 29 Nordeste 0 1015.1 -- 69
2020-04-02 15:00:00 14.6 13 Nordeste 30 Nordeste 0 1015.1 -- 74
2020-04-02 14:00:00 14.4 13 Nordeste -- -- -- 1015 -- 77
2020-04-02 13:00:00 -- -- -- -- -- -- -- -- --
2020-04-02 12:00:00 -- -- -- -- -- -- -- -- --
2020-04-02 11:00:00 -- -- -- -- -- -- -- -- --
2020-04-02 10:00:00 -- -- -- -- -- -- -- -- --
2020-04-02 09:00:00 11.5 6 Nordeste 11 Nordeste 0 1012.5 1.4 96
2020-04-02 08:00:00 11.3 0 Calma 4 Noroeste 0 1011.9 1 97
2020-04-02 07:00:00 11.4 2 Oeste 10 Nordeste 0 1011.5 0.4 96
2020-04-02 06:00:00 11.7 5 Nordeste 13 Nordeste 0 1011.1 -0.2 94
2020-04-02 05:00:00 11.8 6 Nordeste 14 Nordeste 0 1010.9 -0.4 95
2020-04-02 04:00:00 11.8 7 Nordeste 17 Nordeste 0 1011.1 -0.1 95
2020-04-02 03:00:00 11.9 7 Nordeste 22 Norte 0.4 1011.3 0 94
2020-04-02 02:00:00 12 8 Nordeste 19 Nordeste 0.2 1011.3 0.1 95
2020-04-02 01:00:00 11.9 7 Nordeste 18 Nordeste 0 1011.2 0.3 96
2020-04-02 00:00:00 11.8 7 Norte 12 Nordeste 0 1011.3 1.1 95
2020-04-01 23:00:00 11.8 4 Nordeste 13 Este 0 1011.2 1.4 91
2020-04-01 22:00:00 12 6 Nordeste 21 Nordeste 0 1010.9 1.4 92
2020-04-01 21:00:00 12.2 7 Nordeste 19 Nordeste 0 1010.2 1 91
2020-04-01 20:00:00 12.8 6 Nordeste 15 Nordeste 0 1009.8 0.8 88
2020-04-01 19:00:00 13.4 9 Nordeste 16 Nordeste 0 1009.5 0.4 84
2020-04-01 18:00:00 13.7 9 Norte -- -- -- 1009.2 0 83
2020-04-01 17:00:00 13.3 7 Noroeste 19 Norte 0 1009 0 83
2020-04-01 16:00:00 13.2 14 Noroeste 19 Noroeste 0 1009.1 -0.1 79
2020-04-01 15:00:00 12.8 8 Norte 13 Noroeste 0 1009.2 0 85
2020-04-01 14:00:00 12.7 6 Oeste 12 Oeste 0 1009 -0.1 75
2020-04-01 13:00:00 11.9 5 Oeste 8 Oeste 0 1009.2 0.9 73
2020-04-01 12:00:00 11.2 5 Sudoeste 11 Sur 0 1009.2 1.4 75
2020-04-01 11:00:00 9.5 3 Este 8 Norte 0 1009.1 1.6 86
2020-04-01 10:00:00 7.3 4 Norte 8 Norte 0 1008.3 1.2 98
2020-04-01 09:00:00 5.7 3 Sudeste 6 Sur 0 1007.8 0.7 99
2020-04-01 08:00:00 5.2 3 Sudeste 6 Sudeste 0 1007.5 0.5 98
2020-04-01 07:00:00 5.6 2 Sur 5 Norte 0 1007.1 -0.1 97
2020-04-01 06:00:00 6.2 0 Calma 5 Nordeste 0 1007.1 -0.2 97
2020-04-01 05:00:00 5.9 2 Este 6 Sudeste 0 1007 -0.4 96
2020-04-01 04:00:00 6.5 4 Sudeste 8 Sudeste 0 1007.2 -0.3 93
2020-04-01 03:00:00 8 3 Sur 10 Este 0 1007.3 -0.6 89
2020-04-01 02:00:00 9.1 4 Sudeste 16 Sudeste 0 1007.4 -0.4 85
2020-04-01 01:00:00 9.4 5 Este 14 Sudeste 0 1007.5 -0.2 84
2020-04-01 00:00:00 9.8 7 Este 27 Nordeste 0 1007.9 0.8 83
2020-03-31 23:00:00 9.7 12 Este 39 Este 0 1007.8 1 84
2020-03-31 22:00:00 9.7 12 Este 35 Este 0 1007.7 1 83
2020-03-31 21:00:00 9.4 13 Este 35 Este 0 1007.1 0.3 85
2020-03-31 20:00:00 9.3 16 Este 39 Nordeste 0 1006.8 -0.3 84
2020-03-31 19:00:00 9.3 23 Este 47 Este 0 1006.7 -0.8 81
2020-03-31 18:00:00 9.2 21 Este 44 Este 0 1006.8 -1.2 80
2020-03-31 17:00:00 9.7 18 Este 38 Este 0 1007.1 -1.2 74
2020-03-31 16:00:00 9.3 16 Este 38 Este 0 1007.5 -1.3 72
2020-03-31 15:00:00 9.1 19 Este 45 Este 0 1008 -1.3 70
2020-03-31 14:00:00 9.4 20 Este 44 Este 0 1008.3 -1.5 72
2020-03-31 13:00:00 7.8 18 Este 43 Este 0 1008.8 -0.9 76
2020-03-31 12:00:00 8 15 Este 37 Este 0 1009.3 -0.8 69
2020-03-31 11:00:00 7.5 14 Este 28 Este 0 1009.8 0 76
2020-03-31 10:00:00 4.5 8 Este 16 Este 0 1009.7 -0.1 99
2020-03-31 09:00:00 2.2 2 Oeste 6 Sudeste 0 1010.1 0 100
2020-03-31 08:00:00 2 3 Sudoeste 4 Sur 0 1009.8 -1.1 99
2020-03-31 07:00:00 2.6 2 Este 4 Sur 0 1009.8 -2.1 98
2020-03-31 06:00:00 2.9 4 Noroeste 7 Noroeste 0 1010.1 -2.8 98
2020-03-31 05:00:00 2.9 3 Sur 9 Oeste 0.2 1010.9 -2.6 96
2020-03-31 04:00:00 2.9 6 Noroeste 12 Sudoeste 0.4 1011.9 -2.8 97
2020-03-31 03:00:00 3.4 4 Oeste 13 Sudeste 0 1012.9 -2.1 93
2020-03-31 02:00:00 3.7 6 Sudeste 29 Este 2.4 1013.5 -2.2 91
2020-03-31 01:00:00 4.2 8 Norte 23 Nordeste 2 1014.7 -1.7 92
2020-03-31 00:00:00 4.8 9 Este 26 Este 2.8 1015 -1.5 91
2020-03-30 23:00:00 4.5 6 Este 23 Este 0.2 1015.7 -0.4 94
2020-03-30 22:00:00 4.7 15 Este 32 Este 1.2 1016.4 0 91
2020-03-30 21:00:00 4.2 9 Este 26 Este 3.8 1016.5 -0.3 88
2020-03-30 20:00:00 5 5 Sudeste 27 Nordeste 1 1016.1 -1.3 89
2020-03-30 19:00:00 5.8 9 Este 21 Sudeste 0.6 1016.4 -1.3 83
2020-03-30 18:00:00 7.4 14 Este 36 Este 0 1016.8 -1.7 66
2020-03-30 17:00:00 6.7 9 Nordeste 42 Nordeste 0.4 1017.4 -1.8 72
2020-03-30 16:00:00 10.1 13 Nordeste 33 Nordeste 0 1017.7 -1.8 59
2020-03-30 15:00:00 9.4 15 Nordeste 38 Nordeste 0 1018.5 -1.5 53
2020-03-30 14:00:00 9.1 18 Nordeste 34 Nordeste 0 1019.2 -0.9 55
2020-03-30 13:00:00 8.2 13 Nordeste 39 Nordeste 0 1019.5 -0.5 59
2020-03-30 12:00:00 7.3 17 Nordeste 40 Nordeste 0 1020 -0.3 62
2020-03-30 11:00:00 7.8 14 Este 44 Nordeste 0 1020.1 0.5 62
2020-03-30 10:00:00 6.5 13 Nordeste 35 Nordeste 0 1020 0.4 76
2020-03-30 09:00:00 5.1 14 Sudeste 35 Nordeste 0.6 1020.3 0.4 86
2020-03-30 08:00:00 7.1 12 Este 30 Este 0 1019.6 -0.8 69
2020-03-30 07:00:00 7.3 14 Nordeste 30 Nordeste 0 1019.6 -1.1 75
2020-03-30 06:00:00 5.7 5 Este 18 Sudeste 0.2 1019.9 -1.5 86
2020-03-30 05:00:00 6.3 6 Este 16 Este 1.6 1020.4 -1.5 86
2020-03-30 04:00:00 7 6 Este 22 Nordeste 0 1020.7 -1.2 82
2020-03-30 03:00:00 7.1 10 Este 22 Este 0 1021.4 -0.5 87
2020-03-30 02:00:00 7.2 13 Este 34 Este 0.6 1021.9 0.2 86
2020-03-30 01:00:00 7.4 13 Este -- -- -- 1021.9 0.4 85
2020-03-30 00:00:00 7.9 9 Este 25 Este 0 1021.9 0.9 85
2020-03-29 23:00:00 7.8 15 Este 30 Este 0.2 1021.7 1.2 89
2020-03-29 22:00:00 8.3 14 Este 37 Este 0 1021.5 1.5 88
2020-03-29 21:00:00 8.8 15 Este 36 Este 0.2 1021 1.7 85
2020-03-29 20:00:00 9.4 14 Este 40 Nordeste 0 1020.5 1.6 88
2020-03-29 19:00:00 10.5 16 Nordeste 44 Este 0 1020 1.1 84
2020-03-29 18:00:00 11.8 19 Este 38 Nordeste 0 1019.3 0.2 80
2020-03-29 17:00:00 14.6 17 Nordeste 33 Nordeste 0 1018.9 -0.4 65
2020-03-29 16:00:00 15.4 15 Nordeste 27 Norte 0 1018.9 -0.7 60
2020-03-29 15:00:00 15 12 Nordeste 30 Norte 0 1019.1 -0.4 62
2020-03-29 14:00:00 14.1 13 Nordeste 27 Nordeste 0 1019.3 0 68
2020-03-29 13:00:00 11.7 6 Este 16 Nordeste 0 1019.6 0.6 80
2020-03-29 12:00:00 12 8 Nordeste 18 Nordeste 0 1019.5 0.6 80
2020-03-29 11:00:00 11.2 3 Este 10 Este 0 1019.3 0.9 88
2020-03-29 10:00:00 7.5 2 Sur 5 Sudeste 0 1019 0.9 100
2020-03-29 09:00:00 5 2 Este 5 Sudeste 0 1018.9 0.9 99
2020-03-29 08:00:00 4.8 4 Sudeste 5 Sudeste 0 1018.4 0.3 99
2020-03-29 07:00:00 5.1 5 Sudeste 5 Sudeste 0 1018.1 -0.2 99
2020-03-29 06:00:00 5.1 3 Sur 5 Sudeste 0 1018 -0.7 98
2020-03-29 05:00:00 5.3 4 Sudeste 7 Sudeste 0 1018.1 -0.7 99
2020-03-29 03:00:00 6 3 Sudeste 5 Sudeste 0 1018.7 0.1 97
2020-03-29 01:00:00 6.9 2 Sudeste 6 Sudeste 0 1018.8 0.3 97
2020-03-29 00:00:00 6.7 3 Este 6 Sudeste 0 1018.7 0.5 96
2020-03-28 23:00:00 7 4 Sudeste 7 Sudeste 0 1018.6 1.2 95
2020-03-28 22:00:00 8.2 5 Sudeste 6 Sudeste 0 1018.5 1.6 93
2020-03-28 21:00:00 10.3 3 Este 8 Este 0 1018.2 2 87
2020-03-28 20:00:00 11.6 5 Este 19 Este 0 1017.4 1.6 81
2020-03-28 19:00:00 12.7 9 Este 24 Este 0 1016.9 1.2 76
2020-03-28 18:00:00 14.2 12 Nordeste 26 Nordeste 0 1016.2 0.3 69
2020-03-28 17:00:00 14.3 16 Nordeste 30 Nordeste 0 1015.8 -0.3 69
2020-03-28 16:00:00 14.8 15 Nordeste 31 Nordeste 0 1015.7 -0.5 63
2020-03-28 15:00:00 15.2 15 Nordeste 31 Norte 0 1015.9 -0.7 63
2020-03-28 14:00:00 15.2 14 Nordeste 29 Nordeste 0 1016.1 -0.4 62
2020-03-28 13:00:00 15.2 14 Nordeste 28 Nordeste 0 1016.2 -0.1 66
2020-03-28 12:00:00 14.7 12 Nordeste 25 Norte 0 1016.6 0.5 66
2020-03-28 11:00:00 13.7 12 Nordeste 22 Nordeste 0 1016.5 0.9 66
2020-03-28 10:00:00 10 3 Noroeste 5 Sudeste 0 1016.3 1.3 75
2020-03-28 09:00:00 6.6 2 Este 5 Sudeste 0 1016.1 1.5 92
2020-03-28 08:00:00 2.7 2 Sudeste 7 Sudeste 0 1015.6 1.3 99
2020-03-28 07:00:00 2.3 5 Sudeste 6 Sudeste 0 1015 0.8 97
2020-03-28 06:00:00 2.8 3 Sudeste 7 Sudeste 0 1014.6 0.4 97
2020-03-28 05:00:00 3.2 5 Sudeste 6 Sudeste 0 1014.3 0.2 96
2020-03-28 04:00:00 4 3 Este 8 Sudeste 0 1014.2 0.4 94
2020-03-28 03:00:00 4.7 5 Este 7 Sudeste 0 1014.2 0.4 93
2020-03-28 02:00:00 5.8 3 Sudeste 5 Sudoeste 0 1014.1 0.5 89
2020-03-28 01:00:00 8 3 Sudeste 10 Sudeste 0 1013.8 0.6 79
2020-03-28 00:00:00 9.2 4 Sudeste 14 Este 0 1013.8 1.3 73
2020-03-27 23:00:00 9.8 8 Este 21 Este 0 1013.6 1.9 72
2020-03-27 22:00:00 10.1 10 Este 19 Este 0 1013.2 2.1 71
2020-03-27 21:00:00 10.5 9 Este 26 Este 0 1012.5 1.9 69
2020-03-27 20:00:00 10.9 11 Este 33 Este 0 1011.7 1.2 70
2020-03-27 19:00:00 11.9 18 Este 39 Este 0 1011.1 0.6 62
2020-03-27 18:00:00 12.8 18 Este 41 Este 0 1010.6 0.1 59
2020-03-27 17:00:00 13.1 21 Este 41 Este 0 1010.5 -0.6 55
2020-03-27 16:00:00 13.7 15 Este 36 Este 0 1010.5 -1 53
2020-03-27 15:00:00 13.4 21 Este 42 Este 0 1010.5 -1.5 52
2020-03-27 14:00:00 13.6 17 Este 35 Nordeste 0 1011.1 -1.2 50
2020-03-27 13:00:00 13.5 13 Este 34 Este 0 1011.5 -0.9 46
2020-03-27 12:00:00 12.8 16 Este 33 Sudeste 0 1012 -0.3 49
2020-03-27 11:00:00 12.2 15 Este 28 Nordeste 0 1012.3 0.4 49
2020-03-27 10:00:00 10.8 10 Este 19 Nordeste 0 1012.4 0.9 52
2020-03-27 09:00:00 5.5 0 Calma 3 Sudeste 0 1012.3 0.9 86
2020-03-27 08:00:00 2 2 Sudeste 5 Sudeste 0 1011.9 0.7 96
2020-03-27 07:00:00 1.4 3 Sur 7 Sudoeste 0 1011.5 0.2 95
2020-03-27 06:00:00 2.1 4 Sudeste 6 Sudeste 0 1011.4 0 94
2020-03-27 05:00:00 3 4 Sudeste 6 Sudeste 0 1011.2 -0.4 92
2020-03-27 04:00:00 4.2 2 Sur 4 Sudeste 0 1011.3 -0.4 88
2020-03-27 03:00:00 4.6 3 Sudeste 5 Sudeste 0 1011.4 -0.6 86
2020-03-27 02:00:00 5.7 5 Sudeste 6 Sudeste 0 1011.6 -0.5 82
2020-03-27 01:00:00 8 3 Sudeste 9 Sudeste 0 1011.7 -0.5 69
2020-03-27 00:00:00 9.1 5 Este 15 Este 0 1012 -0.2 61
2020-03-26 23:00:00 9.6 9 Este 18 Este 0 1012.1 0.3 56
2020-03-26 22:00:00 10 8 Este 18 Este 0 1012.2 0.7 58
2020-03-26 21:00:00 10.5 9 Este 21 Este 0 1012.2 1 61
2020-03-26 20:00:00 11.2 12 Nordeste 27 Norte 0 1011.8 0.4 60
2020-03-26 19:00:00 11.9 10 Norte 21 Noroeste 0 1011.5 -0.2 62
2020-03-26 18:00:00 12.7 12 Norte 22 Norte 0 1011.2 -0.6 56
2020-03-26 17:00:00 13 13 Norte 24 Noroeste 0 1011.4 -0.9 55
2020-03-26 16:00:00 13.3 15 Norte 25 Norte 0 1011.7 -1.2 54
2020-03-26 15:00:00 12.8 16 Norte 26 Noroeste 0 1011.8 -1.5 56
2020-03-26 14:00:00 13.8 12 Norte 26 Norte 0 1012.3 -1.1 56
2020-03-26 13:00:00 13.2 9 Norte 22 Norte 0 1012.9 -0.5 57
2020-03-26 12:00:00 11.5 8 Noroeste 17 Noroeste 0 1013.3 -0.1 59
2020-03-26 11:00:00 11.7 7 Noroeste 13 Noroeste 0 1013.4 0.2 59
2020-03-26 10:00:00 10.4 5 Oeste 10 Oeste 0 1013.4 0.6 69
2020-03-26 09:00:00 6.3 0 Calma 5 Sudeste 0 1013.4 0.7 97
2020-03-26 08:00:00 3.1 3 Este 8 Este 0 1013.2 0.5 99
2020-03-26 07:00:00 3.2 4 Sudeste 6 Este 0 1012.8 -0.1 99
2020-03-26 06:00:00 3.4 3 Sudeste 6 Sudeste 0 1012.7 -- 99
2020-03-26 05:00:00 4 5 Sudeste 7 Sudeste 0 1012.7 -1 98
2020-03-26 04:00:00 4.5 4 Sudeste 6 Sudeste 0 1012.9 -1 99
2020-03-26 03:00:00 -- -- -- -- -- -- -- -- --
2020-03-26 02:00:00 5 5 Sudeste 6 Sudeste 0 1013.7 -0.5 98
2020-03-26 01:00:00 5.7 3 Sur 8 Este 0 1013.9 -0.2 98
2020-03-26 00:00:00 -- -- -- -- -- -- -- -- --
2020-03-25 23:00:00 6.8 5 Sudeste 6 Sudeste 0 1014.2 0.9 96
2020-03-25 22:00:00 8.1 2 Sudeste 5 Sudeste 0 1014.1 1.3 94
2020-03-25 21:00:00 9.7 4 Sudeste 10 Nordeste 0 1013.7 0.9 90
2020-03-25 20:00:00 11.7 4 Nordeste 13 Nordeste 0 1013.3 0.3 82
2020-03-25 19:00:00 13.9 8 Nordeste 22 Nordeste 0 1012.8 -0.5 76
2020-03-25 18:00:00 15 10 Nordeste 19 Nordeste 0 1012.8 -0.6 75
2020-03-25 17:00:00 15.2 9 Nordeste 21 Nordeste 0 1013 -0.2 73
2020-03-25 16:00:00 15.1 10 Nordeste 21 Norte 0 1013.3 0 75
2020-03-25 15:00:00 15.3 12 Nordeste 23 Nordeste 0 1013.4 -0.1 77
2020-03-25 14:00:00 15.5 12 Nordeste 21 Norte 0 1013.2 -0.4 80
2020-03-25 13:00:00 15.4 11 Norte 19 Norte 0 1013.3 -0.5 78
2020-03-25 12:00:00 15.3 8 Norte 14 Nordeste 0 1013.5 -0.3 79
2020-03-25 11:00:00 14 4 Noroeste 6 Oeste 0 1013.6 0.1 78
2020-03-25 10:00:00 11.3 3 Noroeste 5 Sudoeste 0 1013.8 1.1 96
2020-03-25 09:00:00 7.7 2 Sudeste 7 Este 0 1013.8 1.1 100
2020-03-25 08:00:00 4.6 5 Sudeste 6 Sudeste 0 1013.5 0.9 100
2020-03-25 07:00:00 4.4 4 Este 6 Sudeste 0 1012.7 0 99
2020-03-25 06:00:00 4.9 5 Sudeste 8 Sudeste 0 1012.7 -0.3 99
2020-03-25 05:00:00 5.4 5 Sudeste 6 Este 0 1012.6 -0.4 98
2020-03-25 04:00:00 6.1 4 Este 6 Sudeste 0 1012.7 -0.4 98
2020-03-25 03:00:00 6.9 4 Sudeste 6 Sudeste 0 1013 -0.4 97
2020-03-25 02:00:00 8 6 Sudeste 8 Sudeste 0 1013 -0.5 96
2020-03-25 01:00:00 9.2 4 Sudeste 5 Sudeste 0 1013.1 -0.1 92
2020-03-25 00:00:00 11.4 2 Oeste 12 Este 0 1013.4 0.6 86
2020-03-24 23:00:00 12.3 7 Este 14 Este 0 1013.5 1.1 86
2020-03-24 22:00:00 12.8 6 Este 16 Nordeste 0 1013.2 0.6 84
2020-03-24 21:00:00 13.3 3 Nordeste 19 Este 0 1012.8 0.4 75
2020-03-24 20:00:00 14.6 13 Este 29 Este 0 1012.4 0 69
2020-03-24 19:00:00 16 15 Este 31 Este 0 1012.6 0 64
2020-03-24 18:00:00 17.5 14 Este 36 Este 0 1012.4 -0.5 58
2020-03-24 17:00:00 17.9 19 Este -- -- -- 1012.4 -- 54
2020-03-24 16:00:00 18.7 14 Nordeste 35 Este 0 1012.6 -1.8 50
2020-03-24 15:00:00 18.9 9 Nordeste -- -- -- 1012.9 -1.7 61
2020-03-24 14:00:00 -- -- -- -- -- -- -- -- --
2020-03-24 13:00:00 16 12 Norte 21 Norte 0 1014.4 -0.7 78
2020-03-24 12:00:00 15.8 8 Norte 19 Norte 0 1014.6 -0.8 75
2020-03-24 11:00:00 15.8 3 Oeste 10 Sudeste 0 1014.6 -0.7 71
2020-03-24 10:00:00 14.3 6 Sudeste 15 Sudeste 0 1015.1 0.5 77
2020-03-24 09:00:00 12.7 8 Este 13 Este 0 1015.4 1 85
2020-03-24 08:00:00 12.4 4 Nordeste 8 Sur 0 1015.3 0.9 87
2020-03-24 07:00:00 12.5 6 Sudeste 14 Este 0 1014.6 0 84
2020-03-24 06:00:00 12.5 5 Este 12 Nordeste 0 1014.4 -0.4 88
2020-03-24 05:00:00 12.5 6 Este 12 Este 0 1014.4 -0.6 91
2020-03-24 04:00:00 12.5 8 Este 15 Este 0 1014.6 -0.6 90
2020-03-24 03:00:00 12.5 8 Este 17 Este 0 1014.8 -0.5 90
2020-03-24 02:00:00 12.5 9 Este 23 Este 0 1015 -0.3 89
2020-03-24 01:00:00 12.5 10 Este 20 Este 0 1015.2 -0.2 89
2020-03-24 00:00:00 12.4 10 Este 19 Este 0 1015.3 0.2 89
2020-03-23 23:00:00 12.4 9 Este 18 Este 0 1015.3 0.5 86
2020-03-23 22:00:00 12.5 9 Este 22 Este 0 1015.4 1 86
2020-03-23 21:00:00 12.4 10 Este 24 Este 0 1015.1 0.9 85
2020-03-23 20:00:00 12.4 13 Este 24 Nordeste 0 1014.8 0.6 84
2020-03-23 19:00:00 12.7 11 Este 30 Este 0 1014.4 0.3 82
2020-03-23 18:00:00 13.1 13 Este 30 Este 0 1014.2 -0.1 79
2020-03-23 17:00:00 13.8 10 Nordeste 31 Este 0 1014.2 -0.5 79
2020-03-23 16:00:00 14.5 18 Este 32 Este 0 1014.1 -0.9 76
2020-03-23 15:00:00 14.1 11 Nordeste 25 Nordeste 0 1014.3 -1.1 79
2020-03-23 14:00:00 14.3 13 Nordeste 27 Nordeste 0 1014.7 -1 81
2020-03-23 13:00:00 14.7 9 Nordeste 21 Nordeste 0 1015 -0.7 78
2020-03-23 12:00:00 13.6 6 Este 15 Norte 0 1015.4 0 83
2020-03-23 11:00:00 12.7 6 Nordeste 14 Norte 0 1015.7 0.8 90
2020-03-23 10:00:00 12.3 9 Este 15 Este 0 1015.7 1.3 91
2020-03-23 09:00:00 11.8 2 Nordeste 8 Este 0 1015.4 1.2 94
2020-03-23 08:00:00 11.5 2 Este 13 Este 0.2 1014.9 1.1 94
2020-03-23 07:00:00 11.7 7 Este 16 Nordeste 0 1014.4 0.8 91
2020-03-23 06:00:00 11.6 2 Este 8 Este 0 1014.2 0.4 92
2020-03-23 05:00:00 11.3 2 Sudeste 5 Este 0 1013.8 -0.3 93
2020-03-23 04:00:00 11.4 3 Este 9 Este 0 1013.6 -0.7 92
2020-03-23 03:00:00 11.4 5 Este 13 Este 0 1013.8 -0.6 93
2020-03-23 02:00:00 11.9 6 Nordeste 12 Norte 0 1014.1 -0.1 91
2020-03-23 01:00:00 12.1 4 Este 9 Este 0 1014.3 0.6 88
2020-03-23 00:00:00 12.1 4 Nordeste 15 Este 0 1014.4 1.2 89
2020-03-22 23:00:00 12.2 6 Nordeste 17 Nordeste 0 1014.2 1.6 89
2020-03-22 22:00:00 12.4 7 Nordeste 13 Este 0 1013.7 1.4 90
2020-03-22 21:00:00 12.6 6 Nordeste 14 Nordeste 0 1013.2 1.5 91
2020-03-22 20:00:00 12.8 6 Nordeste 14 Nordeste 0 1012.6 1.3 90
2020-03-22 19:00:00 13.1 8 Nordeste 17 Nordeste 0 1012.3 1.2 89
2020-03-22 18:00:00 13.9 11 Nordeste 19 Norte 0 1011.7 0.6 86
2020-03-22 17:00:00 14.5 9 Nordeste 19 Norte 0 1011.3 0.1 83
2020-03-22 16:00:00 14.7 13 Norte 20 Norte 0 1011.1 -0.3 80
2020-03-22 15:00:00 14.6 11 Norte 20 Norte 0 1011.1 -0.2 80
2020-03-22 14:00:00 15 11 Norte 18 Norte 0 1011.2 -0.1 71
2020-03-22 13:00:00 15.1 11 Norte 18 Noroeste 0 1011.4 0.4 76
2020-03-22 12:00:00 14.9 11 Norte 18 Noroeste 0 1011.3 0.7 81
2020-03-22 11:00:00 14.7 7 Noroeste 11 Oeste 0 1011.3 1 76
2020-03-22 10:00:00 13.7 5 Sudoeste 11 Sudoeste 0 1011 1.2 80
2020-03-22 09:00:00 12.4 2 Sudoeste 5 Sur 0 1010.6 1.1 88
2020-03-22 08:00:00 11.4 2 Sudeste 4 Este 0 1010.3 -- 93
2020-03-22 07:00:00 11.4 4 Sudeste 5 Sudeste 0 1009.8 0.8 94
2020-03-22 06:00:00 11.5 2 Sudeste 4 Sudeste 0 1009.5 0.4 93
2020-03-22 05:00:00 -- -- -- -- -- -- -- -- --
2020-03-22 04:00:00 11.6 0 Calma 4 Sudeste 0 1009 0 91
2020-03-22 03:00:00 11.6 3 Sur 4 Sudoeste 0 1009.1 0 91
2020-03-22 02:00:00 11.7 0 Calma -- -- -- 1008.8 -0.1 91
2020-03-22 01:00:00 11.8 0 Calma 5 Oeste 0 1009 0.5 90
2020-03-22 00:00:00 11.9 2 Sudoeste 10 Norte 0 1009.1 1.1 88
2020-03-21 23:00:00 11.9 7 Noroeste 11 Noroeste 0 1008.9 1.2 87
2020-03-21 22:00:00 12 0 Calma 4 Nordeste 0 1008.5 1.3 89
2020-03-21 21:00:00 12.1 3 Norte 4 Norte 0 1008 1.4 88
2020-03-21 20:00:00 12.1 3 Norte 5 Norte 0 1007.7 1.1 88
2020-03-21 19:00:00 12.3 0 Calma 9 Norte 0 1007.2 0.5 87
2020-03-21 18:00:00 12.4 5 Nordeste 11 Norte 0 1006.6 0.1 87
2020-03-21 17:00:00 12.6 6 Nordeste 14 Nordeste 0 1006.6 -0.1 87
2020-03-21 16:00:00 12.9 8 Nordeste 17 Norte 0 1006.7 -0.3 86
2020-03-21 15:00:00 13.5 8 Norte 16 Norte 0 1006.5 -0.8 86
2020-03-21 14:00:00 13.4 8 Noroeste 14 Noroeste 0 1006.7 -0.6 86
2020-03-21 13:00:00 13 4 Noroeste 12 Norte 0 1007 -0.5 86
2020-03-21 12:00:00 12.1 7 Norte 13 Noroeste 0 1007.3 0.1 90
2020-03-21 11:00:00 11.7 3 Norte 5 Nordeste 0 1007.3 0.4 93
2020-03-21 10:00:00 10.5 2 Oeste 4 Este 0 1007.5 0.5 99
2020-03-21 09:00:00 10 3 Este 6 Este 0 1007.2 -0.2 99
2020-03-21 08:00:00 9.7 0 Calma 6 Sur 0 1006.9 -0.8 99
2020-03-21 07:00:00 10.1 4 Sur 10 Sur 0 1007 -0.9 98
2020-03-21 06:00:00 10.4 5 Sur 8 Sudoeste 0 1007.4 -1.2 98
2020-03-21 05:00:00 10.7 2 Sur 7 Sur 0 1007.7 -1.1 98
2020-03-21 04:00:00 10.8 3 Sur 8 Oeste 0 1007.9 -1.2 97
2020-03-21 03:00:00 10.9 4 Sur 9 Noroeste 0 1008.6 -0.8 97
2020-03-21 02:00:00 11 5 Sudoeste 9 Sur 0 1008.8 -0.7 97
2020-03-21 01:00:00 11.2 3 Sudoeste -- -- -- 1009.1 -0.5 96
2020-03-21 00:00:00 11.3 2 Sudoeste 9 Oeste 0 1009.4 0 96
2020-03-20 23:00:00 11.3 3 Sur -- -- -- 1009.5 0.5 97
2020-03-20 22:00:00 11.1 2 Noroeste 5 Oeste 0 1009.6 0.7 98
2020-03-20 21:00:00 11.1 0 Calma 10 Nordeste 0 1009.4 0.3 97
2020-03-20 20:00:00 11.5 5 Nordeste 11 Norte 0 1009 -0.2 93
2020-03-20 19:00:00 13.3 6 Nordeste 12 Nordeste 0 1008.9 -0.6 87
2020-03-20 18:00:00 14 8 Norte 14 Nordeste 0 1009.1 -0.8 85
2020-03-20 17:00:00 14.6 9 Nordeste 15 Norte 0 1009.2 -1 84
2020-03-20 16:00:00 13.2 6 Nordeste 15 Nordeste 0 1009.5 -0.9 86
2020-03-20 15:00:00 13.3 7 Nordeste 19 Norte 0 1009.9 -0.8 86
2020-03-20 14:00:00 13.9 10 Nordeste 18 Norte 0 1010.2 -0.7 84
2020-03-20 13:00:00 13.6 10 Nordeste 17 Norte 0 1010.4 -0.6 86
2020-03-20 12:00:00 13.5 5 Nordeste 14 Norte 0 1010.7 -0.2 85
2020-03-20 11:00:00 12.7 3 Este 10 Este 0 1010.9 0.2 87
2020-03-20 10:00:00 11.7 3 Este 6 Este 0 1011 0.4 92
2020-03-20 09:00:00 10.8 4 Oeste 8 Oeste 0 1010.9 0.2 95
2020-03-20 08:00:00 10.5 3 Sur 8 Sur 0 1010.7 -0.2 97
2020-03-20 07:00:00 10.6 4 Sur 8 Sur 0 1010.6 -0.5 98
2020-03-20 06:00:00 10.8 3 Sur 4 Sur 0 1010.7 -0.9 99
2020-03-20 05:00:00 10.8 3 Sur 5 Sur 0 1010.9 -1 99
2020-03-20 04:00:00 11 3 Sur 5 Sur 0 1011.1 -1.1 99
2020-03-20 03:00:00 11 2 Norte 4 Sudeste 0 1011.6 -1 99
2020-03-20 02:00:00 11 2 Sudeste 4 Sur 0 1011.9 -1.1 99
2020-03-20 01:00:00 11 0 Calma 4 Nordeste 0 1012.2 -0.9 98
2020-03-20 00:00:00 11 0 Calma 6 Norte 0 1012.6 -0.4 98
2020-03-19 23:00:00 11.1 3 Norte 8 Noroeste 0 1013 0 99
2020-03-19 22:00:00 11.2 5 Norte 9 Norte 0 1013.1 0.3 98
2020-03-19 21:00:00 11.4 5 Nordeste 10 Nordeste 0 1013 -0.1 97
2020-03-19 20:00:00 11.4 6 Norte 14 Este 0 1013 -0.4 97
2020-03-19 19:00:00 11.8 6 Este 12 Este 0 1012.8 -0.9 94
2020-03-19 18:00:00 12 5 Nordeste 10 Norte 0 1013.1 -0.7 93
2020-03-19 17:00:00 12.1 6 Nordeste 16 Norte 0 1013.4 -1.3 92
2020-03-19 16:00:00 12.2 9 Nordeste 18 Norte 0 1013.7 -1.7 92
2020-03-19 15:00:00 12.9 6 Nordeste 19 Norte 0 1013.8 -2.1 88
2020-03-19 14:00:00 12.5 11 Norte 17 Nordeste 0 1014.7 -1.9 91
2020-03-19 13:00:00 12.3 9 Norte 13 Norte 0 1015.4 -- 91
2020-03-19 12:00:00 12 3 Sur 8 Sudeste 0 1015.9 -0.9 90
2020-03-19 11:00:00 11.3 3 Oeste 8 Sudoeste 0 1016.6 -0.2 92
2020-03-19 10:00:00 -- -- -- -- -- -- -- -- --
2020-03-19 09:00:00 10.5 4 Sur 6 Sur 0 1016.8 -0.3 95
2020-03-19 08:00:00 10.5 2 Este 7 Este 0 1016.8 -0.6 96
2020-03-19 07:00:00 10.6 2 Este 6 Este 0 1017 -0.7 97
2020-03-19 06:00:00 10.7 4 Nordeste 6 Nordeste 0 1017.1 -1.4 96
2020-03-19 05:00:00 10.8 0 Calma 6 Nordeste 0 1017.4 -1.6 96
2020-03-19 04:00:00 10.8 4 Noroeste 8 Norte 0 1017.7 -1.5 95
2020-03-19 03:00:00 11 5 Norte 8 Norte 0 1018.5 -1.1 95
2020-03-19 02:00:00 11.2 5 Norte 8 Norte 0 1019 -1 94
2020-03-19 01:00:00 11.4 2 Norte 6 Norte 0 1019.2 -0.9 94
2020-03-19 00:00:00 11.5 3 Sudoeste 4 Sudoeste 0 1019.6 -0.6 94
2020-03-18 23:00:00 11.5 3 Este 7 Norte 0 1020 -0.1 93
2020-03-18 22:00:00 11.7 5 Nordeste 10 Nordeste 0 1020.1 -0.1 94
2020-03-18 21:00:00 11.9 5 Nordeste 10 Norte 0 1020.2 -0.2 93
2020-03-18 20:00:00 12 6 Norte 11 Norte 0 1020.1 -0.5 91
2020-03-18 19:00:00 12.5 5 Nordeste 14 Norte 0 1020.2 -0.7 89
2020-03-18 18:00:00 12.8 8 Norte 15 Norte 0 1020.4 -0.6 88
2020-03-18 17:00:00 13.4 8 Norte 18 Norte 0 1020.6 -0.9 87
2020-03-18 16:00:00 13.8 12 Norte 19 Nordeste 0 1020.9 -1.3 84
2020-03-18 15:00:00 15 12 Nordeste 21 Nordeste 0 1021 -1.7 79
2020-03-18 14:00:00 14.4 13 Norte 21 Norte 0 1021.5 -1.8 83
2020-03-18 13:00:00 14.7 12 Norte -- -- -- 1022.2 -1.5 82
2020-03-18 12:00:00 14.4 6 Norte 13 Nordeste 0 1022.7 -0.9 81
2020-03-18 11:00:00 12.8 4 Sudeste 10 Nordeste 0 1023.3 -0.5 85
2020-03-18 10:00:00 11.5 3 Sudeste 8 Este 0 1023.7 0 90
2020-03-18 09:00:00 10.7 3 Sur 7 Sudeste 0 1023.6 0.1 92
2020-03-18 08:00:00 10.4 4 Sur 6 Sur 0 1023.8 0.3 92
2020-03-18 07:00:00 10.4 3 Sur 8 Sur 0 1023.7 -0.1 92
2020-03-18 06:00:00 10.4 4 Sur 9 Sur 0 1023.5 -0.7 93
2020-03-18 05:00:00 10.2 0 Calma 6 Sudeste 0 1023.5 -0.9 96
2020-03-18 04:00:00 10.1 2 Sudeste 4 Sudeste 0 1023.8 -0.9 95
2020-03-18 03:00:00 10.1 3 Sudoeste 4 Sudoeste 0 1024.2 -0.9 95
2020-03-18 02:00:00 10.1 3 Nordeste 5 Norte 0 1024.4 -0.9 95
2020-03-18 01:00:00 9.9 2 Sudoeste 5 Nordeste 0 1024.7 -0.6 95
2020-03-18 00:00:00 10.1 3 Sur 7 Nordeste 0 1025.1 -0.3 94
2020-03-17 23:00:00 11.1 2 Sudeste 12 Este 0 1025.3 0.3 92
2020-03-17 22:00:00 11.4 6 Este 12 Este 0 1025.3 0.3 90
2020-03-17 21:00:00 11.6 7 Este 16 Este 0 1025.4 0.5 88
2020-03-17 20:00:00 11.6 9 Este 22 Este 0 1025 0 86
2020-03-17 19:00:00 12.3 13 Este 25 Este 0 1025 0 83
2020-03-17 18:00:00 12.4 14 Este 24 Este 0 1024.9 -0.4 79
2020-03-17 17:00:00 12.6 10 Este 22 Nordeste 0 1025 -0.6 80
2020-03-17 16:00:00 12.7 10 Nordeste -- -- -- 1025 -0.9 80
2020-03-17 15:00:00 12.6 10 Nordeste 23 Norte 0 1025.3 -0.9 79
2020-03-17 14:00:00 12.9 10 Nordeste 23 Nordeste 0 1025.6 -0.5 81
2020-03-17 13:00:00 13.2 10 Nordeste 18 Norte 0.2 1025.9 -0.2 79
2020-03-17 12:00:00 12.8 9 Este 15 Este 0 1026.2 0.2 76
2020-03-17 11:00:00 11.6 6 Norte 13 Norte 0 1026.1 0.2 80
2020-03-17 10:00:00 9.8 2 Noroeste 4 Oeste 0 1026.1 0.8 86
2020-03-17 09:00:00 8.9 2 Sur 4 Norte 0 1026 1.3 92
2020-03-17 08:00:00 8.2 2 Sur 5 Sur 0 1025.9 1.4 95
2020-03-17 07:00:00 7.9 3 Sur 5 Este 0 1025.3 0.7 94
2020-03-17 06:00:00 7.6 4 Sudeste 5 Sudeste 0 1024.7 -0.2 94
2020-03-17 05:00:00 7.4 3 Sur 5 Sudoeste 0 1024.5 -0.5 93
2020-03-17 04:00:00 7 2 Sudoeste 5 Sudeste 0 1024.6 -0.4 94
2020-03-17 03:00:00 6.4 4 Este 6 Sudeste 0 1024.9 0 95
2020-03-17 02:00:00 6.5 3 Sudeste 6 Sudeste 0 1025 0 93
2020-03-17 01:00:00 7.7 3 Sudeste 12 Norte 0 1025 0.5 86
2020-03-17 00:00:00 9.9 5 Nordeste 15 Nordeste 0 1024.9 1.1 71
2020-03-16 23:00:00 10 6 Nordeste 19 Nordeste 0 1025 1.8 70
2020-03-16 22:00:00 10.4 12 Nordeste 19 Nordeste 0 1024.5 2.2 70
2020-03-16 21:00:00 10.5 5 Nordeste 17 Nordeste 0 1023.8 2.2 70
2020-03-16 20:00:00 10.8 10 Nordeste 20 Norte 0 1023.2 2 66
2020-03-16 19:00:00 11.4 10 Nordeste 26 Nordeste 0 1022.3 1.5 65
2020-03-16 18:00:00 12.8 14 Nordeste 30 Norte 0 1021.6 1 61
2020-03-16 17:00:00 12.7 17 Norte 28 Norte 0 1021.2 0.5 60
2020-03-16 16:00:00 13.3 16 Nordeste 30 Norte 0 1020.8 0.6 58
2020-03-16 15:00:00 12.4 16 Nordeste 39 Norte 0 1020.6 0.9 68
2020-03-16 14:00:00 13.1 15 Norte 28 Norte 0 1020.7 1.4 62
2020-03-16 13:00:00 12.4 9 Nordeste 25 Norte 1.2 1020.2 1.5 76
2020-03-16 12:00:00 12.8 13 Norte 24 Norte 0.4 1019.7 1.6 73
2020-03-16 11:00:00 11.3 13 Norte 27 Norte 0 1019.3 2 71
2020-03-16 10:00:00 7.8 3 Oeste 14 Norte 0.4 1018.7 2.4 93
2020-03-16 09:00:00 6 3 Sudeste 14 Sur 0.6 1018.1 2.5 96
2020-03-16 08:00:00 5.8 5 Sur 10 Oeste 2.6 1017.3 2.2 95
2020-03-16 07:00:00 5.8 3 Norte 12 Norte 0.2 1016.3 1.1 95
2020-03-16 06:00:00 6 5 Sur 13 Norte 0.8 1015.6 1.1 95
2020-03-16 05:00:00 5.7 5 Sur 13 Sur 0.4 1015.1 0.7 94
2020-03-16 04:00:00 6.1 3 Sudoeste 17 Nordeste 0.8 1015.2 0.7 92
2020-03-16 03:00:00 5.9 4 Sudoeste 14 Sur 0 1014.5 0.2 89
2020-03-16 02:00:00 6 5 Sudoeste 10 Sur 0 1014.4 0.2 89
2020-03-16 01:00:00 5.9 4 Sur 10 Sudoeste 0.8 1014.5 0.8 92
2020-03-16 00:00:00 5.9 7 Sur 16 Sur 0 1014.3 0.5 89
2020-03-15 23:00:00 5.9 3 Sudoeste 19 Sudoeste 0.8 1014.2 0.7 89
2020-03-15 22:00:00 5.8 8 Sudoeste 19 Sur 0.2 1013.7 0.6 88
2020-03-15 21:00:00 5.9 9 Sur 20 Sur 1 1013.8 1.5 91
2020-03-15 20:00:00 6.3 8 Sudoeste 17 Sur 0.4 1013.5 1.9 90
2020-03-15 19:00:00 7 7 Sudoeste 26 Oeste 1 1013.1 1.9 90
2020-03-15 18:00:00 8.1 11 Oeste 36 Oeste 0.6 1012.3 1.8 89
2020-03-15 17:00:00 9.1 10 Noroeste 33 Oeste 0.4 1011.6 2.1 83
2020-03-15 16:00:00 9.1 15 Noroeste 37 Noroeste 0 1011.2 2.1 89
2020-03-15 15:00:00 10.5 21 Noroeste 43 Noroeste 0 1010.5 0.7 85
2020-03-15 14:00:00 15.1 19 Noroeste 44 Noroeste 0 1009.5 -1.1 65
2020-03-15 13:00:00 15.5 10 Sur 20 Sur 0 1009.1 -1.8 62
2020-03-15 12:00:00 14.2 5 Sudoeste 13 Sur 0 1009.8 -1.4 72
2020-03-15 11:00:00 12.2 3 Oeste 11 Sudoeste 0 1010.6 -0.6 83
2020-03-15 10:00:00 11.1 4 Sur 12 Sudoeste 0 1010.9 0.2 86
2020-03-15 09:00:00 8.6 4 Sudoeste 10 Sudoeste 0 1011.2 0.7 100
2020-03-15 08:00:00 3.8 5 Sur 10 Sudeste 0 1011.2 1.1 100
2020-03-15 07:00:00 3.5 0 Calma 9 Sudeste 0 1010.7 -0.2 100
2020-03-15 06:00:00 3.3 7 Sudeste 9 Sudeste 0 1010.5 -1.6 99
2020-03-15 05:00:00 3.6 0 Calma 7 Sudeste 0 1010.1 -2.9 99
2020-03-15 04:00:00 3.9 3 Este 8 Sudeste 0 1010.9 -3.2 98
2020-03-15 03:00:00 4.2 6 Sudeste 7 Sudeste 0 1012.1 -2.9 98
2020-03-15 02:00:00 4.7 3 Sudeste 6 Sudeste 0 1013 -2.5 97
2020-03-15 01:00:00 5.3 4 Sudeste -- -- -- 1014.1 -1.9 96
2020-03-15 00:00:00 6 4 Sudeste 8 Sudeste 0 1015 -1.6 96
2020-03-14 23:00:00 6.7 4 Sudeste 7 Sudeste 0 1015.5 -1.1 94
2020-03-14 22:00:00 8.3 3 Sur 13 Este 0 1016 -0.9 87
2020-03-14 21:00:00 10 8 Este 17 Este 0 1016.6 -0.8 81
2020-03-14 20:00:00 11 9 Este 21 Este 0 1016.6 -1.3 74
2020-03-14 19:00:00 12.8 11 Este 19 Este 0 1016.9 -1.2 66
2020-03-14 18:00:00 13.6 12 Nordeste 23 Nordeste 0 1017.4 -1.1 64
2020-03-14 17:00:00 14.3 13 Nordeste 24 Este 0 1017.9 -1.5 60
2020-03-14 16:00:00 15.1 14 Nordeste 25 Norte 0 1018.1 -1.9 63
2020-03-14 15:00:00 15.2 11 Nordeste 20 Nordeste 0 1018.5 -2.2 56
2020-03-14 14:00:00 15.4 12 Nordeste 21 Nordeste 0 1019.4 -1.9 55
2020-03-14 13:00:00 15.5 4 Noroeste 12 Nordeste 0 1020 -1.3 57
2020-03-14 12:00:00 14.5 5 Noroeste 12 Oeste 0 1020.7 -0.3 56
2020-03-14 11:00:00 13.5 7 Sudoeste 14 Oeste 0 1021.3 0.7 60
2020-03-14 10:00:00 12 5 Sudoeste 11 Sudoeste 0 1021.3 1 70
2020-03-14 09:00:00 8.3 2 Sudoeste 6 Sudoeste 0 1021 0.8 97
2020-03-14 08:00:00 6.2 3 Sudeste 5 Sudeste 0 1020.6 0.6 98
2020-03-14 07:00:00 7.6 2 Norte 7 Sudeste 0 1020.3 0 98
2020-03-14 06:00:00 8.3 5 Sudeste 7 Sudeste 0 1020.2 -0.6 98
2020-03-14 05:00:00 8.2 3 Norte 4 Noroeste 0 1020 -1.1 97
2020-03-14 04:00:00 8 4 Sudeste 7 Sudeste 0 1020.3 -0.8 98
2020-03-14 03:00:00 7.7 5 Sudeste 8 Sudeste 0 1020.8 -0.5 98
2020-03-14 02:00:00 7.9 6 Este 8 Sudeste 0 1021.1 -0.2 96
2020-03-14 01:00:00 9 3 Sudeste 5 Sudeste 0 1021.1 0.1 95
2020-03-14 00:00:00 9.3 3 Sudeste 6 Sudeste 0 1021.3 0.8 94
2020-03-13 23:00:00 9.2 2 Norte 6 Sudeste 0 1021.3 1.2 91
2020-03-13 22:00:00 9.2 4 Sudeste 5 Sudeste 0 1021 1.7 91
2020-03-13 21:00:00 8.9 4 Sudeste 8 Sudeste 0 1020.5 1.2 89
2020-03-13 20:00:00 10.2 3 Sudeste 13 Este 0 1020.1 0.1 82
2020-03-13 19:00:00 12 8 Este 18 Sudeste 0 1019.3 -1.3 72
2020-03-13 18:00:00 13.2 9 Este 22 Este 0 1019.3 -1.6 69
2020-03-13 17:00:00 12.9 13 Este 23 Este 0 1020 -1.5 68
2020-03-13 16:00:00 13.2 11 Este 22 Este 0 1020.6 -1.3 67
2020-03-13 15:00:00 12.8 12 Este 25 Este 0 1020.9 -1.2 73
2020-03-13 14:00:00 12.6 11 Nordeste 28 Nordeste 0 1021.5 -0.5 74
2020-03-13 13:00:00 11.8 10 Este 25 Este 0 1021.9 -0.2 78
2020-03-13 12:00:00 11.4 10 Nordeste 25 Este 0 1022.1 0.3 89
2020-03-13 11:00:00 11.9 10 Este 21 Este 0 1022 0.5 80
2020-03-13 10:00:00 11 8 Este 18 Este 0 1022.1 0.4 86
2020-03-13 09:00:00 9.9 5 Este 10 Este 0 1021.8 -0.2 93
2020-03-13 08:00:00 9.2 4 Este 11 Sudeste 0 1021.5 -0.6 95
2020-03-13 07:00:00 8.9 5 Este 12 Este 0.2 1021.7 -0.6 95
2020-03-13 06:00:00 9 9 Este 18 Este 0.2 1022 -0.8 95
2020-03-13 05:00:00 9.1 6 Este 14 Nordeste 0.4 1022.1 -0.8 96
2020-03-13 04:00:00 9.3 3 Este 12 Este 0.2 1022.3 -0.8 95
2020-03-13 03:00:00 9.4 6 Este 12 Este 0 1022.8 -0.5 96
2020-03-13 02:00:00 9.3 2 Este 9 Este 0 1022.9 -0.2 97
2020-03-13 01:00:00 9.4 4 Este 13 Este 0 1023.1 0.2 97
2020-03-13 00:00:00 9.5 7 Nordeste 16 Este 0.4 1023.3 0.4 97
2020-03-12 23:00:00 9.5 4 Este 14 Nordeste 0.2 1023.1 0.5 96
2020-03-12 22:00:00 9.8 5 Nordeste 11 Nordeste 0.4 1022.9 1.1 98
2020-03-12 21:00:00 9.8 4 Nordeste 18 Nordeste 0.4 1022.9 1.5 96
2020-03-12 20:00:00 9.9 10 Nordeste 24 Nordeste 1.4 1022.6 1.7 96
2020-03-12 19:00:00 10.7 13 Nordeste 22 Nordeste 1.6 1021.8 1 97
2020-03-12 18:00:00 11 13 Norte 25 Noroeste 0 1021.4 0.7 95
2020-03-12 17:00:00 11.7 16 Norte 28 Norte 0.2 1020.9 -0.1 92
2020-03-12 16:00:00 13 9 Norte 15 Norte 0 1020.8 -0.4 85
2020-03-12 15:00:00 13 10 Norte 16 Norte 0 1020.7 -0.6 86
2020-03-12 14:00:00 13.6 9 Norte 15 Norte 0 1021 -0.2 84
2020-03-12 13:00:00 13.6 4 Sudeste 8 Sudeste 0 1021.2 0.4 85
2020-03-12 12:00:00 12.7 2 Norte 13 Norte 0 1021.3 1 89
2020-03-12 11:00:00 12.4 8 Noroeste 16 Noroeste 0 1021.2 1.4 94
2020-03-12 10:00:00 12.8 2 Oeste 6 Sur 0 1020.8 1.5 92
2020-03-12 09:00:00 12.7 3 Sur 5 Sudoeste 0 1020.3 1 90
2020-03-12 08:00:00 12.8 2 Sur 8 Noroeste 0 1019.8 0.6 89
2020-03-12 07:00:00 12.6 5 Sur 8 Sur 0 1019.3 -0.1 90
2020-03-12 06:00:00 12.5 3 Este 6 Sur 0 1019.3 -0.4 93
2020-03-12 05:00:00 12.5 4 Sudeste 5 Sur 0 1019.2 -0.5 94
2020-03-12 04:00:00 12.6 2 Sur 6 Sur 0 1019.4 -0.4 92
2020-03-12 03:00:00 12.7 3 Sudeste 6 Sudeste 0 1019.7 -0.5 91
2020-03-12 02:00:00 12.8 0 Calma 5 Este 0 1019.7 -0.4 90
2020-03-12 01:00:00 12.8 3 Sudeste 5 Sur 0 1019.8 -0.2 90
2020-03-12 00:00:00 12.9 2 Sudoeste 5 Sudoeste 0 1020.2 0.1 88
2020-03-11 23:00:00 13 3 Sur 4 Sur 0 1020.1 -0.1 88
2020-03-11 22:00:00 13.1 0 Calma 5 Sudeste 0 1020 0 86
2020-03-11 21:00:00 13.2 3 Sudeste 5 Sudeste 0 1020.1 0.8 85
2020-03-11 20:00:00 13.3 3 Este 13 Norte 0 1020.2 1.4 84
2020-03-11 19:00:00 13.7 9 Norte 14 Norte 0 1020 -- 85
2020-03-11 18:00:00 14.7 9 Norte 15 Norte 0 1019.3 0.8 79
2020-03-11 17:00:00 16.1 9 Norte -- -- -- 1018.8 -0.6 74
2020-03-11 16:00:00 -- -- -- -- -- -- -- -- --
2020-03-11 15:00:00 17.1 11 Nordeste 21 Nordeste 0 1018.5 -1.8 74
2020-03-11 14:00:00 17.2 9 Nordeste 23 Nordeste 0 1019.4 -1.3 64
2020-03-11 13:00:00 16.4 13 Nordeste 22 Nordeste 0 1020 -1 68
2020-03-11 12:00:00 16.2 12 Nordeste 20 Norte 0 1020.3 -0.9 74
2020-03-11 11:00:00 14.8 4 Noroeste 8 Noroeste 0 1020.7 -0.7 74
2020-03-11 10:00:00 11.8 0 Calma 4 Norte 0 1021 -0.4 87
2020-03-11 09:00:00 7.9 2 Sudeste 5 Sudeste 0 1021.2 -0.3 100
2020-03-11 08:00:00 5.1 3 Sudeste 8 Sudeste 0 1021.4 0 100
2020-03-11 07:00:00 5.2 6 Sudeste 8 Sudeste 0 1021.4 -0.2 99
2020-03-11 06:00:00 5.5 2 Sudeste 6 Sudeste 0 1021.5 -0.5 99
2020-03-11 05:00:00 5.6 6 Sudeste 6 Sudeste 0 1021.4 -0.6 98
2020-03-11 04:00:00 6.1 3 Sur 7 Sudeste 0 1021.6 -0.6 98
2020-03-11 03:00:00 6.4 3 Sudeste 6 Este 0 1022 -0.8 98
2020-03-11 02:00:00 6.8 5 Este 7 Este 0 1022 -1 98
2020-03-11 01:00:00 7.2 4 Sudeste 7 Sudeste 0 1022.2 -0.9 97
2020-03-11 00:00:00 8 0 Calma 6 Sudeste 0 1022.8 -0.1 95
2020-03-10 23:00:00 8.6 5 Sudeste 9 Noroeste 0 1023 0.6 93
2020-03-10 22:00:00 9.5 5 Sudeste 10 Noroeste 0 1023.1 0.8 90
2020-03-10 21:00:00 10.5 3 Sudeste 8 Este 0 1022.9 0.9 84
2020-03-10 20:00:00 12.9 3 Sudeste 10 Sudeste 0 1022.4 0.8 72
2020-03-10 19:00:00 15.2 5 Nordeste 15 Nordeste 0 1022.3 0.6 62
2020-03-10 18:00:00 16.3 10 Nordeste 22 Norte 0 1022 -0.1 57
2020-03-10 17:00:00 17.7 7 Nordeste 14 Norte 0 1021.6 -1 53
2020-03-10 16:00:00 17.4 7 Nordeste 16 Nordeste 0 1021.7 -1.6 55
2020-03-10 15:00:00 16 10 Nordeste 19 Nordeste 0 1022.1 -1.6 65
2020-03-10 14:00:00 15.3 11 Norte 20 Noroeste 0 1022.6 -0.7 67
2020-03-10 13:00:00 15 5 Nordeste 18 Norte 0 1023.3 -0.1 70
2020-03-10 12:00:00 13.3 12 Norte 19 Norte 0 1023.7 0.7 79
2020-03-10 11:00:00 13.6 4 Este 10 Sudeste 0 1023.3 1.1 78
2020-03-10 10:00:00 9.5 4 Sudeste 6 Sudeste 0 1023.4 2 100
2020-03-10 09:00:00 6.8 0 Calma 7 Sudeste 0 1023 0.9 100
2020-03-10 08:00:00 4.9 6 Sudeste 9 Sudeste 0 1022.2 -0.4 100
2020-03-10 07:00:00 5.1 2 Sudeste 7 Sudeste 0 1021.4 -1.6 99
2020-03-10 06:00:00 5.3 3 Sudeste 5 Sudeste 0 1022.1 -1.1 99
2020-03-10 05:00:00 5.5 2 Norte 4 Este 0 1022.6 -0.9 99
2020-03-10 04:00:00 5.9 3 Sudeste 6 Este 0 1023 -0.7 98
2020-03-10 03:00:00 6.1 6 Este 9 Este 0 1023.2 -0.9 98
2020-03-10 02:00:00 6.3 6 Sudeste 8 Sudeste 0 1023.5 -1 97
2020-03-10 01:00:00 6.8 5 Sudeste 6 Sudeste 0 1023.7 -1.2 96
2020-03-10 00:00:00 7.8 2 Noroeste 6 Sudeste 0 1024.1 -1.2 95
2020-03-09 23:00:00 8.4 4 Sudeste 6 Sudeste 0 1024.5 -0.8 93
2020-03-09 22:00:00 9.3 3 Sudeste 8 Este 0 1024.9 -0.2 89
2020-03-09 21:00:00 10.2 4 Sudeste 6 Este 0 1025.3 0.8 84
2020-03-09 20:00:00 12 2 Sur 18 Noroeste 0 1025.3 0.2 75
2020-03-09 19:00:00 12.9 9 Noroeste 18 Noroeste 0 1025.1 0.1 69
2020-03-09 18:00:00 13.8 9 Noroeste 23 Norte 0 1024.5 -1 65
2020-03-09 17:00:00 14 15 Noroeste 25 Noroeste 0 1025.1 -1 68
2020-03-09 16:00:00 14.3 11 Norte 22 Noroeste 0 1025 -1.6 61
2020-03-09 15:00:00 14.7 12 Noroeste 27 Noroeste 0 1025.5 -1.7 58
2020-03-09 14:00:00 14.5 15 Noroeste 24 Noroeste 0 1026.1 -0.8 57
2020-03-09 13:00:00 14.6 6 Oeste 23 Sudoeste 0 1026.6 0.2 53
2020-03-09 12:00:00 13.9 10 Oeste 22 Oeste 0 1027.2 1.6 58
2020-03-09 11:00:00 13.1 8 Oeste 26 Oeste 0 1026.9 2 61
2020-03-09 10:00:00 12.4 8 Oeste 15 Sudoeste 0 1026.4 1.2 62
2020-03-09 09:00:00 10.5 3 Sudoeste 12 Sudoeste 0 1025.6 0.5 66
2020-03-09 08:00:00 9.5 5 Sudoeste 9 Sudoeste 0 1024.9 0.6 70
2020-03-09 07:00:00 9.6 4 Sudoeste 10 Sudoeste 0 1025.2 0.6 72
2020-03-09 06:00:00 10 5 Sudoeste 20 Oeste 0 1025.1 0.3 73
2020-03-09 05:00:00 10.7 9 Oeste 31 Noroeste 0 1024.3 -0.2 73
2020-03-09 04:00:00 11 15 Oeste 29 Noroeste 0 1024.6 0 75
2020-03-09 03:00:00 11 6 Oeste 30 Oeste 0 1024.8 0.1 77
2020-03-09 02:00:00 11.2 13 Oeste 27 Oeste 0.2 1024.5 0 73
2020-03-09 01:00:00 11.5 8 Oeste 24 Noroeste 0 1024.6 1.4 77
2020-03-09 00:00:00 11.2 9 Oeste 35 Oeste 0.2 1024.7 2.2 81
2020-03-08 23:00:00 11 18 Oeste 44 Noroeste 0.2 1024.5 2.6 81
2020-03-08 22:00:00 12.1 16 Noroeste 39 Noroeste 0 1023.2 2.1 78
2020-03-08 21:00:00 12.7 10 Oeste 27 Oeste 0 1022.5 2.2 75
2020-03-08 20:00:00 13.1 11 Oeste 35 Noroeste 0 1021.9 2.1 68
2020-03-08 19:00:00 13.5 16 Noroeste 44 Noroeste 0 1021.1 2.2 64
2020-03-08 18:00:00 14 19 Oeste 45 Noroeste 0 1020.3 1.5 63
2020-03-08 17:00:00 14.7 18 Oeste 37 Oeste 0 1019.8 1.3 65
2020-03-08 16:00:00 15.4 16 Noroeste 42 Noroeste 0 1018.9 -0.1 72
2020-03-08 15:00:00 16.6 22 Noroeste 45 Noroeste 0 1018.8 -0.5 65
2020-03-08 14:00:00 17.2 20 Noroeste 37 Oeste 0 1018.5 -0.9 64
2020-03-08 13:00:00 18.8 13 Sudoeste 31 Sudoeste 0 1019 -0.9 53
2020-03-08 12:00:00 16.2 8 Sudoeste 17 Oeste 0 1019.3 -0.3 63
2020-03-08 11:00:00 14.5 7 Sudoeste 18 Sudoeste 0 1019.4 0.2 66
2020-03-08 10:00:00 11.3 4 Sudoeste 8 Noroeste 0 1019.9 0.5 81
2020-03-08 09:00:00 8.8 3 Nordeste 6 Sudeste 0 1019.6 0.4 96
2020-03-08 08:00:00 7.4 0 Calma 9 Sudeste 0 1019.2 -0.5 98
2020-03-08 07:00:00 6.4 0 Calma 4 Norte 0 1019.4 -0.6 98
2020-03-08 06:00:00 5.7 4 Sudeste 7 Sudeste 0 1019.2 -1.4 99
2020-03-08 05:00:00 4.9 3 Sudeste -- -- -- 1019.7 -1.3 99
2020-03-08 04:00:00 3.9 2 Sudeste 9 Sudeste 0 1020 -1.8 99
2020-03-08 03:00:00 3.1 3 Sudeste 8 Sudeste 0 1020.6 -1.1 97
2020-03-08 02:00:00 3.6 0 Calma 9 Sudeste 0 1021 -1 96
2020-03-08 01:00:00 3.9 8 Sudeste 12 Sudeste 0 1021.8 -0.8 96
2020-03-08 00:00:00 4.3 7 Sudeste 10 Sudeste 0 1021.7 -1.3 95
2020-03-07 23:00:00 5.3 5 Sudeste 6 Sudeste 0 1022 -1.1 93
2020-03-07 22:00:00 6.4 3 Sudeste 8 Sudeste 0 1022.6 -0.3 91
2020-03-07 21:00:00 8.1 4 Sur 8 Sudeste 0 1023 0 85
2020-03-07 20:00:00 10.4 4 Sudeste 9 Este 0 1023.1 0.1 75
2020-03-07 19:00:00 12.9 5 Este 12 Norte 0 1022.9 -0.3 62
2020-03-07 18:00:00 14 9 Norte 17 Norte 0 1023 -0.7 58
2020-03-07 17:00:00 14.3 11 Norte 22 Norte 0 1023 -1 58
2020-03-07 16:00:00 14.4 13 Norte 26 Noroeste 0 1023.2 -1.4 65
2020-03-07 15:00:00 13.6 14 Norte 24 Norte 0 1023.7 -1.7 62
2020-03-07 14:00:00 14.2 12 Norte 19 Norte 0 1024 -1.8 57
2020-03-07 13:00:00 14.9 7 Noroeste 15 Noroeste 0 1024.6 -1 51
2020-03-07 12:00:00 13.9 4 Sudoeste 14 Sur 0 1025.4 0.4 60
2020-03-07 11:00:00 12.6 6 Sudoeste 13 Sur 0 1025.8 1.3 68
2020-03-07 10:00:00 11.5 4 Sudoeste 13 Oeste 0 1025.6 1.4 76
2020-03-07 09:00:00 10.9 5 Sur 12 Sur 0 1025 1.1 80
2020-03-07 08:00:00 10.3 7 Sudoeste 17 Sur 0 1024.5 1 83
2020-03-07 07:00:00 10.2 6 Sudoeste 17 Sudoeste 0 1024.2 0.5 86
2020-03-07 06:00:00 10.1 6 Sudoeste 16 Sudoeste 0 1023.9 -0.4 86
2020-03-07 05:00:00 10 7 Sur 19 Sudoeste 0 1023.5 -0.9 87
2020-03-07 04:00:00 10.3 8 Sur 17 Sudoeste 0 1023.7 -0.6 81
2020-03-07 03:00:00 10.2 8 Sudoeste 17 Sudoeste 0 1024.3 -0.2 80
2020-03-07 02:00:00 9.4 8 Sudoeste 15 Sudoeste 0 1024.4 0.1 85
2020-03-07 01:00:00 8.5 7 Sudoeste 20 Sur 0.4 1024.3 0.5 92
2020-03-07 00:00:00 8.8 7 Sudoeste 24 Oeste 0.2 1024.5 0.8 86
2020-03-06 23:00:00 9 8 Sudoeste 25 Sudoeste 0 1024.3 1.3 83
2020-03-06 22:00:00 10.2 6 Sudoeste 14 Sudoeste 0 1023.8 1.2 70
2020-03-06 21:00:00 10.4 9 Oeste 17 Oeste 0 1023.7 1.7 70
2020-03-06 20:00:00 10.4 8 Oeste 28 Oeste 0 1023 1.6 67
2020-03-06 19:00:00 10.9 14 Oeste 41 Oeste 0 1022.6 2.1 63
2020-03-06 18:00:00 10.9 15 Oeste 44 Noroeste 0 1022 1.7 61
2020-03-06 17:00:00 10.3 21 Noroeste 55 Oeste 0.4 1021.4 1.7 74
2020-03-06 16:00:00 10.4 13 Oeste 39 Noroeste 0.6 1020.5 1.1 70
2020-03-06 15:00:00 9.7 14 Oeste 52 Oeste 0.4 1020.3 1 76
2020-03-06 14:00:00 11.2 20 Oeste 51 Oeste 0 1019.7 1.6 62
2020-03-06 13:00:00 12.1 23 Oeste 49 Oeste 0 1019.4 -- 57
2020-03-06 12:00:00 9.2 26 Noroeste 66 Noroeste 0.2 1019.3 3.6 75
2020-03-06 11:00:00 11.1 22 Noroeste -- -- -- 1018.1 4.1 56
2020-03-06 10:00:00 -- -- -- -- -- -- -- -- --
2020-03-06 09:00:00 8.1 16 Oeste 56 Oeste 0.2 1015.7 3.7 76
2020-03-06 08:00:00 8.6 22 Noroeste 55 Noroeste 0.2 1014 2.9 71
2020-03-06 07:00:00 8.6 19 Oeste 42 Oeste 0.2 1013.1 2.2 76
2020-03-06 06:00:00 8 23 Oeste 56 Sudoeste 2.2 1012 -- 73
2020-03-06 05:00:00 8.2 20 Oeste 44 Oeste 1.2 1011.1 0.6 75
2020-03-06 04:00:00 7.9 19 Oeste -- -- -- 1010.9 0.4 80
2020-03-06 03:00:00 -- -- -- -- -- -- -- -- --
2020-03-06 02:00:00 8.9 11 Sudoeste 27 Sudoeste 0 1010.5 0.5 75
2020-03-06 01:00:00 9 12 Sudoeste 55 Oeste 0.6 1010.5 -- 81
2020-03-06 00:00:00 10.5 12 Oeste 26 Oeste 0 1010.1 -1.4 68
2020-03-05 23:00:00 10.1 7 Sudoeste -- -- -- 1010 -1.8 69
2020-03-05 22:00:00 -- -- -- -- -- -- -- -- --
2020-03-05 21:00:00 10.4 4 Sudoeste 19 Oeste 0 1011.5 0.2 75
2020-03-05 20:00:00 11.3 12 Oeste 36 Oeste 0 1011.8 0.8 72
2020-03-05 19:00:00 11.3 18 Oeste 39 Oeste 0.2 1011.7 1.2 77
2020-03-05 18:00:00 11.8 15 Oeste 53 Oeste 0 1011.3 1 75
2020-03-05 17:00:00 11.1 19 Oeste 43 Oeste 1.8 1011 1.3 81
2020-03-05 16:00:00 12.9 21 Oeste 46 Oeste 0 1010.5 1.9 64
2020-03-05 15:00:00 12.7 18 Oeste 41 Oeste 0.2 1010.3 3.2 73
2020-03-05 14:00:00 12.2 22 Oeste 49 Noroeste 0 1009.7 4.9 74
2020-03-05 13:00:00 11.8 14 Oeste 45 Noroeste 0.8 1008.6 5.4 82
2020-03-05 12:00:00 11.8 17 Oeste 45 Oeste 0.4 1007.1 3.9 79
2020-03-05 11:00:00 13.9 22 Oeste 49 Oeste 0 1004.8 2.1 58
2020-03-05 10:00:00 14.1 19 Oeste 46 Oeste 0 1003.2 0.7 54
2020-03-05 09:00:00 12.7 19 Oeste 48 Oeste 0 1003.2 1.5 63
2020-03-05 08:00:00 11.7 9 Sudoeste -- -- -- 1002.7 1.1 83
2020-03-05 07:00:00 12.3 14 Oeste 41 Oeste 1.6 1002.5 2.2 83
2020-03-05 06:00:00 12 16 Oeste 55 Noroeste 3 1001.7 0.3 92
2020-03-05 05:00:00 13.8 28 Noroeste 57 Norte 0.4 1001.6 -0.9 89
2020-03-05 04:00:00 13.7 5 Sudeste 8 Sudeste 0 1000.3 -4.3 85
2020-03-05 03:00:00 14.1 6 Sudeste 10 Sudeste 0 1001.4 -4.1 82
2020-03-05 02:00:00 13.9 5 Sudeste 10 Sudeste 0 1002.5 -4.5 85
2020-03-05 01:00:00 14.2 2 Sur 7 Este 0 1004.6 -3.5 83
2020-03-05 00:00:00 14.5 4 Este 9 Sudeste 0 1005.5 -3.3 80